createdAt,value
2018-03-28T05:47:41.681Z,1.6
2018-03-28T05:48:42.422Z,1.64
2018-03-28T05:49:42.455Z,1.6
2018-03-28T05:50:42.329Z,1.6
2018-03-28T05:51:42.406Z,1.48
2018-03-28T05:52:42.414Z,1.51
2018-03-28T05:53:42.369Z,1.51
2018-03-28T05:54:42.371Z,1.57
2018-03-28T05:55:41.761Z,1.58
2018-03-28T05:56:42.357Z,1.58
2018-03-28T05:57:42.730Z,1.6
2018-03-28T05:58:42.982Z,1.57
2018-03-28T05:59:42.712Z,1.6
2018-03-28T06:00:42.435Z,1.64
2018-03-28T06:01:43.014Z,1.51
2018-03-28T06:02:42.825Z,1.66
2018-03-28T06:03:43.612Z,1.57
2018-03-28T06:04:43.057Z,1.47
2018-03-28T06:05:43.361Z,1.44
2018-03-28T06:06:43.396Z,1.53
2018-03-28T06:07:43.433Z,1.58
2018-03-28T06:08:43.150Z,1.48
2018-03-28T06:09:43.446Z,1.54
2018-03-28T06:10:43.203Z,1.53
2018-03-28T06:11:43.718Z,1.51
2018-03-28T06:12:43.759Z,1.51
2018-03-28T06:13:43.483Z,1.53
2018-03-28T06:14:43.772Z,1.48
2018-03-28T06:15:43.508Z,1.54
2018-03-28T06:16:51.004Z,1.48
2018-03-28T06:17:51.417Z,1.5
2018-03-28T06:18:51.059Z,1.51
2018-03-28T06:19:50.900Z,1.42
2018-03-28T06:20:51.108Z,1.42
2018-03-28T06:21:51.423Z,1.46
2018-03-28T06:22:51.508Z,1.44
2018-03-28T06:23:51.459Z,1.4
2018-03-28T06:24:51.698Z,1.4
2018-03-28T06:25:51.716Z,1.46
2018-03-28T06:26:51.682Z,1.4
2018-03-28T06:27:52.253Z,1.53
2018-03-28T06:28:52.902Z,1.42
2018-03-28T06:29:51.756Z,1.44
2018-03-28T06:30:52.036Z,1.48
2018-03-28T06:31:52.560Z,1.46
2018-03-28T06:32:52.717Z,1.5
2018-03-28T06:33:52.326Z,1.44
2018-03-28T06:34:52.652Z,1.48
2018-03-28T06:35:52.628Z,1.44
2018-03-28T06:36:52.656Z,1.48
2018-03-28T06:37:53.136Z,1.47
2018-03-28T06:38:52.929Z,1.6
2018-03-28T06:39:53.180Z,1.6
2018-03-28T06:40:53.271Z,1.53
2018-03-28T06:41:53.329Z,1.58
2018-03-28T06:42:53.298Z,1.47
2018-03-28T06:43:53.275Z,1.5
2018-03-28T06:44:53.303Z,1.48
2018-03-28T06:45:53.060Z,1.48
2018-03-28T06:46:52.801Z,1.47
2018-03-28T06:47:53.364Z,1.53
2018-03-28T06:48:53.386Z,1.48
2018-03-28T06:49:53.453Z,1.54
2018-03-28T06:50:53.422Z,1.51
2018-03-28T06:51:53.207Z,1.46
2018-03-28T06:52:53.194Z,1.44
2018-03-28T06:53:53.920Z,1.51
2018-03-28T06:54:53.712Z,1.42
2018-03-28T06:55:53.463Z,1.46
2018-03-28T06:56:53.730Z,1.53
2018-03-28T06:57:53.991Z,1.51
2018-03-28T06:58:54.007Z,1.48
2018-03-28T06:59:53.999Z,1.5
2018-03-28T07:00:54.185Z,1.53
2018-03-28T07:01:54.230Z,1.51
2018-03-28T07:02:54.252Z,1.51
2018-03-28T07:03:54.132Z,1.5
2018-03-28T07:04:54.241Z,1.54
2018-03-28T07:05:54.878Z,1.51
2018-03-28T07:06:54.718Z,1.51
2018-03-28T07:07:54.741Z,1.5
2018-03-28T07:08:54.596Z,1.47
2018-03-28T07:09:55.140Z,1.47
2018-03-28T07:10:55.548Z,1.44
2018-03-28T07:11:55.012Z,1.5
2018-03-28T07:12:55.357Z,1.48
2018-03-28T07:13:55.601Z,1.47
2018-03-28T07:14:55.348Z,1.47
2018-03-28T07:15:55.726Z,1.47
2018-03-28T07:16:55.926Z,1.5
2018-03-28T07:17:56.423Z,1.51
2018-03-28T07:18:55.415Z,1.64
2018-03-28T07:19:55.831Z,1.64
2018-03-28T07:20:55.970Z,1.56
2018-03-28T07:21:56.760Z,1.58
2018-03-28T07:22:56.778Z,1.58
2018-03-28T07:23:56.256Z,1.58
2018-03-28T07:24:55.952Z,1.6
2018-03-28T07:25:55.708Z,1.58
2018-03-28T07:26:55.859Z,1.48
2018-03-28T07:27:56.502Z,1.64
2018-03-28T07:28:56.406Z,1.61
2018-03-28T07:29:56.136Z,1.53
2018-03-28T07:30:56.447Z,1.64
2018-03-28T07:31:56.549Z,1.66
2018-03-28T07:32:57.210Z,1.61
2018-03-28T07:33:57.229Z,1.54
2018-03-28T07:34:57.621Z,1.48
2018-03-28T07:35:57.380Z,1.47
2018-03-28T07:36:57.680Z,1.47
2018-03-28T07:37:57.809Z,1.48
2018-03-28T07:38:57.834Z,1.46
2018-03-28T07:39:57.990Z,1.44
2018-03-28T07:40:57.469Z,1.4
2018-03-28T07:41:58.038Z,1.44
2018-03-28T07:42:58.143Z,1.44
2018-03-28T07:43:58.249Z,1.51
2018-03-28T07:44:58.640Z,1.46
2018-03-28T07:45:59.073Z,1.46
2018-03-28T07:46:59.117Z,1.4
2018-03-28T07:47:58.866Z,1.44
2018-03-28T07:48:58.870Z,1.39
2018-03-28T07:49:59.277Z,1.51
2018-03-28T07:50:58.772Z,1.44
2018-03-28T07:51:59.321Z,1.51
2018-03-28T07:52:59.071Z,1.51
2018-03-28T07:53:59.186Z,1.48
2018-03-28T07:54:59.846Z,1.56
2018-03-28T07:55:59.615Z,1.48
2018-03-28T07:56:59.886Z,1.47
2018-03-28T07:58:00.001Z,1.5
2018-03-28T07:59:00.434Z,1.48
2018-03-28T08:00:00.150Z,1.5
2018-03-28T08:01:00.679Z,1.5
2018-03-28T08:02:00.561Z,1.48
2018-03-28T08:03:00.534Z,1.47
2018-03-28T08:04:01.014Z,1.48
2018-03-28T08:05:00.883Z,1.47
2018-03-28T08:06:00.916Z,1.56
2018-03-28T08:07:01.026Z,1.53
2018-03-28T08:08:00.997Z,1.47
2018-03-28T08:09:00.429Z,1.61
2018-03-28T08:10:00.724Z,1.56
2018-03-28T08:11:00.738Z,1.57
2018-03-28T08:12:00.718Z,1.58
2018-03-28T08:13:01.294Z,1.58
2018-03-28T08:14:01.647Z,1.64
2018-03-28T08:15:01.910Z,1.58
2018-03-28T08:16:01.671Z,1.53
2018-03-28T08:17:01.911Z,1.57
2018-03-28T08:18:01.916Z,1.6
2018-03-28T08:19:02.118Z,1.56
2018-03-28T08:20:01.861Z,1.6
2018-03-28T08:21:02.430Z,1.54
2018-03-28T08:22:02.525Z,1.58
2018-03-28T08:23:02.924Z,1.71
2018-03-28T08:24:02.903Z,1.57
2018-03-28T08:25:03.184Z,1.57
2018-03-28T08:26:03.795Z,1.69
2018-03-28T08:27:03.821Z,1.74
2018-03-28T08:28:03.799Z,1.75
2018-03-28T08:29:03.521Z,1.75
2018-03-28T08:30:04.079Z,1.82
2018-03-28T08:31:03.829Z,1.84
2018-03-28T08:32:04.090Z,1.79
2018-03-28T08:33:04.071Z,1.86
2018-03-28T08:34:04.544Z,1.84
2018-03-28T08:35:04.579Z,1.76
2018-03-28T08:36:04.561Z,1.89
2018-03-28T08:37:04.577Z,1.83
2018-03-28T08:38:05.114Z,1.78
2018-03-28T08:39:05.080Z,1.87
2018-03-28T08:40:05.131Z,1.74
2018-03-28T08:41:05.137Z,1.74
2018-03-28T08:42:05.165Z,1.79
2018-03-28T08:43:05.170Z,1.82
2018-03-28T08:44:05.198Z,1.87
2018-03-28T08:45:05.259Z,1.83
2018-03-28T08:46:05.268Z,1.89
2018-03-28T08:47:05.006Z,1.94
2018-03-28T08:48:04.990Z,1.93
2018-03-28T08:49:05.577Z,1.9
2018-03-28T08:50:05.286Z,1.79
2018-03-28T08:51:05.832Z,1.84
2018-03-28T08:52:05.829Z,1.71
2018-03-28T08:53:06.119Z,1.68
2018-03-28T08:54:06.497Z,1.76
2018-03-28T08:55:06.119Z,1.64
2018-03-28T08:56:06.513Z,1.71
2018-03-28T08:57:06.237Z,1.65
2018-03-28T08:58:06.544Z,1.6
2018-03-28T08:59:06.284Z,1.75
2018-03-28T09:00:09.852Z,1.72
2018-03-28T09:01:07.480Z,1.84
2018-03-28T09:02:09.042Z,1.82
2018-03-28T09:03:09.115Z,1.84
2018-03-28T09:04:08.266Z,1.86
2018-03-28T09:05:08.693Z,1.83
2018-03-28T09:06:08.511Z,1.89
2018-03-28T09:07:08.460Z,1.84
2018-03-28T09:08:08.993Z,1.87
2018-03-28T09:09:08.527Z,1.97
2018-03-28T09:10:08.492Z,1.93
2018-03-28T09:11:08.771Z,1.9
2018-03-28T09:12:09.236Z,1.9
2018-03-28T09:13:09.266Z,2.01
2018-03-28T09:14:09.522Z,1.93
2018-03-28T09:15:09.802Z,1.93
2018-03-28T09:16:09.502Z,2.01
2018-03-28T09:17:09.768Z,1.9
2018-03-28T09:18:09.296Z,1.9
2018-03-28T09:19:09.308Z,1.94
2018-03-28T09:20:09.940Z,1.98
2018-03-28T09:21:09.869Z,1.97
2018-03-28T09:22:09.725Z,2.02
2018-03-28T09:23:09.611Z,2.06
2018-03-28T09:24:09.885Z,2.04
2018-03-28T09:25:10.334Z,2.08
2018-03-28T09:26:10.263Z,1.89
2018-03-28T09:27:10.924Z,2.02
2018-03-28T09:28:11.051Z,2.04
2018-03-28T09:29:11.433Z,2.05
2018-03-28T09:30:11.108Z,1.92
2018-03-28T09:31:11.583Z,2.05
2018-03-28T09:32:11.347Z,1.93
2018-03-28T09:33:11.361Z,2.02
2018-03-28T09:34:12.439Z,2.01
2018-03-28T09:35:11.637Z,1.94
2018-03-28T09:36:11.932Z,2.06
2018-03-28T09:37:12.100Z,2.06
2018-03-28T09:38:12.500Z,2.04
2018-03-28T09:39:12.576Z,2.04
2018-03-28T09:40:12.561Z,1.94
2018-03-28T09:41:12.397Z,2.04
2018-03-28T09:42:12.946Z,2.02
2018-03-28T09:43:13.071Z,2.08
2018-03-28T09:44:13.013Z,1.94
2018-03-28T09:45:13.025Z,2.08
2018-03-28T09:46:13.451Z,1.93
2018-03-28T09:47:13.834Z,2.11
2018-03-28T09:48:14.239Z,2.09
2018-03-28T09:49:14.620Z,2.11
2018-03-28T09:50:14.646Z,2.12
2018-03-28T09:51:14.668Z,2.15
2018-03-28T09:52:14.446Z,2.06
2018-03-28T09:53:14.812Z,2.05
2018-03-28T09:54:15.308Z,2.04
2018-03-28T09:55:15.977Z,2.04
2018-03-28T09:56:15.847Z,2.08
2018-03-28T09:57:15.989Z,2.02
2018-03-28T09:58:16.014Z,2.11
2018-03-28T09:59:17.074Z,2.05
2018-03-28T10:00:16.730Z,2.02
2018-03-28T10:01:16.206Z,1.93
2018-03-28T10:02:16.754Z,1.93
2018-03-28T10:03:16.917Z,1.94
2018-03-28T10:04:17.063Z,2.04
2018-03-28T10:05:17.140Z,2.04
2018-03-28T10:06:17.549Z,2.04
2018-03-28T10:07:17.893Z,1.98
2018-03-28T10:08:18.275Z,1.94
2018-03-28T10:09:18.443Z,1.98
2018-03-28T10:10:18.056Z,1.93
2018-03-28T10:11:18.449Z,1.9
2018-03-28T10:12:18.200Z,1.83
2018-03-28T10:13:18.768Z,1.98
2018-03-28T10:14:18.590Z,1.97
2018-03-28T10:15:18.620Z,1.92
2018-03-28T10:16:19.189Z,1.94
2018-03-28T10:17:18.914Z,2.04
2018-03-28T10:18:19.332Z,2.05
2018-03-28T10:19:19.428Z,2.09
2018-03-28T10:20:20.062Z,1.92
2018-03-28T10:21:20.723Z,2.02
2018-03-28T10:22:20.745Z,2.08
2018-03-28T10:23:20.751Z,2.09
2018-03-28T10:24:21.117Z,2.13
2018-03-28T10:25:20.886Z,2.11
2018-03-28T10:26:21.307Z,2.12
2018-03-28T10:27:21.964Z,2.02
2018-03-28T10:28:21.988Z,2.12
2018-03-28T10:29:21.747Z,2.05
2018-03-28T10:30:22.113Z,2.08
2018-03-28T10:31:22.129Z,2.13
2018-03-28T10:32:22.154Z,2.08
2018-03-28T10:33:22.177Z,2.08
2018-03-28T10:34:22.193Z,2.01
2018-03-28T10:35:21.926Z,1.98
2018-03-28T10:36:22.585Z,2.02
2018-03-28T10:37:22.438Z,2.05
2018-03-28T10:38:22.217Z,2.06
2018-03-28T10:39:22.771Z,2.08
2018-03-28T10:40:22.856Z,2.05
2018-03-28T10:41:22.813Z,2.01
2018-03-28T10:42:23.184Z,1.87
2018-03-28T10:43:23.599Z,1.94
2018-03-28T10:44:23.711Z,2.02
2018-03-28T10:45:23.987Z,2.05
2018-03-28T10:46:24.126Z,2.08
2018-03-28T10:47:24.524Z,2.08
2018-03-28T10:48:24.871Z,2.09
2018-03-28T10:49:24.886Z,2.02
2018-03-28T10:50:25.002Z,2.12
2018-03-28T10:51:25.124Z,2.08
2018-03-28T10:52:25.497Z,2.13
2018-03-28T10:53:26.157Z,2.08
2018-03-28T10:54:25.915Z,2.06
2018-03-28T10:55:26.051Z,2.02
2018-03-28T10:56:26.704Z,2.11
2018-03-28T10:57:26.717Z,2.02
2018-03-28T10:58:26.733Z,2.05
2018-03-28T10:59:26.490Z,2.02
2018-03-28T11:00:26.338Z,2.04
2018-03-28T11:01:27.200Z,2.06
2018-03-28T11:02:27.233Z,2.05
2018-03-28T11:03:27.242Z,2.12
2018-03-28T11:04:26.990Z,2.06
2018-03-28T11:05:27.118Z,2.18
2018-03-28T11:06:27.520Z,2.18
2018-03-28T11:07:27.745Z,2.16
2018-03-28T11:08:27.765Z,2.2
2018-03-28T11:09:27.527Z,2.2
2018-03-28T11:10:27.964Z,2.2
2018-03-28T11:11:27.978Z,2.29
2018-03-28T11:12:27.738Z,2.31
2018-03-28T11:13:28.061Z,2.29
2018-03-28T11:14:28.086Z,2.24
2018-03-28T11:15:28.137Z,2.23
2018-03-28T11:16:27.900Z,2.24
2018-03-28T11:17:27.907Z,2.23
2018-03-28T11:18:28.214Z,2.24
2018-03-28T11:19:28.229Z,2.31
2018-03-28T11:20:28.039Z,2.26
2018-03-28T11:21:28.382Z,2.22
2018-03-28T11:22:29.052Z,2.24
2018-03-28T11:23:28.726Z,2.16
2018-03-28T11:24:28.755Z,2.22
2018-03-28T11:25:28.776Z,2.3
2018-03-28T11:26:29.069Z,2.24
2018-03-28T11:27:28.558Z,2.18
2018-03-28T11:28:28.855Z,2.24
2018-03-28T11:29:29.153Z,2.23
2018-03-28T11:30:29.166Z,2.47
2018-03-28T11:31:28.917Z,2.31
2018-03-28T11:32:29.209Z,2.38
2018-03-28T11:33:29.232Z,2.33
2018-03-28T11:34:29.540Z,2.4
2018-03-28T11:35:29.298Z,2.33
2018-03-28T11:36:29.337Z,2.42
2018-03-28T11:37:29.925Z,2.34
2018-03-28T11:38:29.954Z,2.31
2018-03-28T11:39:29.432Z,2.36
2018-03-28T11:40:29.718Z,2.33
2018-03-28T11:41:29.766Z,2.34
2018-03-28T11:42:30.083Z,2.26
2018-03-28T11:43:30.396Z,2.24
2018-03-28T11:44:30.479Z,2.23
2018-03-28T11:45:30.425Z,2.29
2018-03-28T11:46:30.178Z,2.26
2018-03-28T11:47:30.518Z,2.27
2018-03-28T11:48:30.532Z,2.27
2018-03-28T11:49:30.281Z,2.33
2018-03-28T11:50:30.339Z,2.22
2018-03-28T11:51:30.635Z,2.22
2018-03-28T11:52:30.377Z,2.08
2018-03-28T11:53:30.411Z,2.04
2018-03-28T11:54:30.415Z,2.2
2018-03-28T11:55:30.450Z,2.11
2018-03-28T11:56:31.019Z,2.2
2018-03-28T11:57:30.783Z,2.22
2018-03-28T11:58:31.122Z,2.31
2018-03-28T11:59:31.192Z,2.24
2018-03-28T12:00:31.459Z,2.26
2018-03-28T12:01:31.881Z,2.26
2018-03-28T12:02:31.305Z,2.16
2018-03-28T12:03:31.539Z,2.08
2018-03-28T12:04:31.557Z,2.22
2018-03-28T12:05:31.300Z,2.2
2018-03-28T12:06:31.531Z,2.29
2018-03-28T12:07:31.824Z,2.22
2018-03-28T12:08:31.852Z,2.18
2018-03-28T12:09:31.870Z,2.18
2018-03-28T12:10:31.622Z,2.23
2018-03-28T12:11:31.641Z,2.2
2018-03-28T12:12:32.178Z,2.15
2018-03-28T12:13:31.943Z,2.23
2018-03-28T12:14:31.936Z,2.24
2018-03-28T12:15:32.236Z,2.26
2018-03-28T12:16:32.298Z,2.24
2018-03-28T12:17:32.022Z,2.23
2018-03-28T12:18:32.582Z,2.29
2018-03-28T12:19:32.547Z,2.24
2018-03-28T12:20:32.398Z,2.24
2018-03-28T12:21:32.614Z,2.2
2018-03-28T12:22:32.386Z,2.18
2018-03-28T12:23:32.442Z,2.3
2018-03-28T12:24:32.177Z,2.27
2018-03-28T12:25:32.712Z,2.23
2018-03-28T12:26:32.773Z,2.3
2018-03-28T12:27:32.721Z,2.26
2018-03-28T12:28:32.506Z,2.42
2018-03-28T12:29:32.804Z,2.3
2018-03-28T12:30:32.654Z,2.31
2018-03-28T12:31:33.144Z,2.36
2018-03-28T12:32:32.593Z,2.42
2018-03-28T12:33:33.025Z,2.38
2018-03-28T12:34:32.557Z,2.27
2018-03-28T12:35:33.110Z,2.3
2018-03-28T12:36:33.044Z,2.29
2018-03-28T12:37:33.559Z,2.33
2018-03-28T12:38:33.559Z,2.4
2018-03-28T12:39:33.402Z,2.27
2018-03-28T12:40:33.240Z,2.29
2018-03-28T12:41:33.368Z,2.29
2018-03-28T12:42:33.172Z,2.22
2018-03-28T12:43:33.273Z,2.27
2018-03-28T12:44:33.499Z,2.36
2018-03-28T12:45:33.949Z,2.27
2018-03-28T12:46:33.668Z,2.34
2018-03-28T12:47:34.209Z,2.29
2018-03-28T12:48:34.443Z,2.36
2018-03-28T12:49:33.963Z,2.33
2018-03-28T12:50:34.511Z,2.33
2018-03-28T12:51:34.872Z,2.36
2018-03-28T12:52:34.892Z,2.3
2018-03-28T12:53:34.637Z,2.29
2018-03-28T12:54:35.328Z,2.36
2018-03-28T12:55:35.496Z,2.27
2018-03-28T12:56:35.655Z,2.3
2018-03-28T12:57:35.676Z,2.34
2018-03-28T12:58:35.712Z,2.3
2018-03-28T12:59:35.437Z,2.27
2018-03-28T13:00:35.969Z,2.24
2018-03-28T13:01:35.771Z,2.26
2018-03-28T13:02:35.882Z,2.34
2018-03-28T13:03:35.807Z,2.34
2018-03-28T13:04:35.803Z,2.33
2018-03-28T13:05:36.037Z,2.29
2018-03-28T13:06:36.077Z,2.36
2018-03-28T13:07:35.815Z,2.31
2018-03-28T13:08:36.333Z,2.29
2018-03-28T13:09:36.082Z,2.31
2018-03-28T13:10:36.828Z,2.29
2018-03-28T13:11:36.596Z,2.31
2018-03-28T13:12:36.362Z,2.34
2018-03-28T13:13:36.628Z,2.36
2018-03-28T13:14:36.448Z,2.3
2018-03-28T13:15:36.713Z,2.31
2018-03-28T13:16:37.481Z,2.38
2018-03-28T13:17:37.393Z,2.45
2018-03-28T13:18:37.306Z,2.36
2018-03-28T13:19:37.349Z,2.44
2018-03-28T13:20:37.085Z,2.41
2018-03-28T13:21:37.632Z,2.33
2018-03-28T13:22:37.678Z,2.36
2018-03-28T13:23:37.680Z,2.31
2018-03-28T13:24:37.459Z,2.27
2018-03-28T13:25:37.725Z,2.23
2018-03-28T13:26:37.672Z,2.33
2018-03-28T13:27:37.761Z,2.29
2018-03-28T13:28:37.999Z,2.27
2018-03-28T13:29:38.317Z,2.2
2018-03-28T13:30:38.316Z,2.2
2018-03-28T13:31:38.424Z,2.26
2018-03-28T13:32:38.183Z,2.26
2018-03-28T13:33:38.889Z,2.29
2018-03-28T13:34:38.647Z,2.31
2018-03-28T13:35:39.118Z,2.48
2018-03-28T13:36:38.900Z,2.55
2018-03-28T13:37:39.232Z,2.58
2018-03-28T13:38:39.235Z,2.54
2018-03-28T13:39:38.752Z,2.52
2018-03-28T13:40:39.526Z,2.59
2018-03-28T13:41:39.514Z,2.48
2018-03-28T13:42:39.046Z,2.47
2018-03-28T13:43:39.780Z,2.45
2018-03-28T13:44:39.581Z,2.45
2018-03-28T13:45:39.601Z,2.49
2018-03-28T13:46:39.666Z,2.59
2018-03-28T13:47:39.850Z,2.55
2018-03-28T13:48:40.092Z,2.52
2018-03-28T13:49:39.562Z,2.49
2018-03-28T13:50:40.419Z,2.42
2018-03-28T13:51:40.444Z,2.36
2018-03-28T13:52:40.271Z,2.38
2018-03-28T13:53:40.220Z,2.36
2018-03-28T13:54:40.236Z,2.34
2018-03-28T13:55:40.848Z,2.34
2018-03-28T13:56:40.777Z,2.33
2018-03-28T13:57:41.312Z,2.36
2018-03-28T13:58:41.852Z,2.36
2018-03-28T13:59:42.075Z,2.41
2018-03-28T14:00:42.050Z,2.31
2018-03-28T14:01:42.222Z,2.36
2018-03-28T14:02:42.868Z,2.34
2018-03-28T14:03:43.022Z,2.26
2018-03-28T14:04:43.032Z,2.22
2018-03-28T14:05:42.910Z,2.31
2018-03-28T14:06:43.212Z,2.22
2018-03-28T14:07:43.221Z,2.31
2018-03-28T14:08:43.340Z,2.2
2018-03-28T14:09:43.484Z,2.23
2018-03-28T14:10:43.876Z,2.18
2018-03-28T14:11:44.544Z,2.23
2018-03-28T14:12:44.639Z,2.26
2018-03-28T14:13:44.661Z,2.22
2018-03-28T14:14:44.690Z,2.23
2018-03-28T14:15:45.096Z,2.29
2018-03-28T14:16:45.195Z,2.24
2018-03-28T14:17:44.689Z,2.27
2018-03-28T14:18:45.280Z,2.2
2018-03-28T14:19:45.015Z,2.27
2018-03-28T14:20:45.008Z,2.2
2018-03-28T14:21:45.383Z,2.23
2018-03-28T14:22:45.489Z,2.15
2018-03-28T14:23:45.391Z,2.15
2018-03-28T14:24:45.790Z,2.24
2018-03-28T14:25:45.796Z,2.2
2018-03-28T14:26:46.195Z,2.33
2018-03-28T14:27:46.318Z,2.36
2018-03-28T14:28:46.622Z,2.26
2018-03-28T14:29:46.744Z,2.29
2018-03-28T14:30:47.197Z,2.24
2018-03-28T14:31:47.148Z,2.31
2018-03-28T14:32:47.778Z,2.23
2018-03-28T14:33:47.820Z,2.2
2018-03-28T14:34:47.713Z,2.2
2018-03-28T14:35:48.247Z,2.18
2018-03-28T14:36:48.425Z,2.18
2018-03-28T14:37:47.912Z,2.2
2018-03-28T14:38:48.282Z,2.18
2018-03-28T14:39:48.668Z,2.18
2018-03-28T14:40:49.032Z,2.31
2018-03-28T14:41:49.169Z,2.26
2018-03-28T14:42:59.595Z,2.26
2018-03-28T14:43:49.200Z,2.24
2018-03-28T14:44:49.304Z,2.26
2018-03-28T14:45:48.815Z,2.27
2018-03-28T14:46:49.380Z,2.24
2018-03-28T14:47:48.970Z,2.22
2018-03-28T14:48:49.527Z,2.27
2018-03-28T14:49:49.548Z,2.3
2018-03-28T14:50:49.576Z,2.24
2018-03-28T14:51:49.532Z,2.38
2018-03-28T14:52:49.723Z,2.26
2018-03-28T14:53:50.037Z,2.27
2018-03-28T14:54:50.160Z,2.27
2018-03-28T14:55:50.814Z,2.23
2018-03-28T14:56:50.934Z,2.27
2018-03-28T14:57:51.229Z,2.29
2018-03-28T14:58:51.635Z,2.26
2018-03-28T14:59:51.724Z,2.31
2018-03-28T15:00:51.803Z,2.24
2018-03-28T15:01:52.112Z,2.31
2018-03-28T15:02:52.332Z,2.3
2018-03-28T15:03:51.870Z,2.26
2018-03-28T15:04:52.189Z,2.38
2018-03-28T15:05:52.203Z,2.34
2018-03-28T15:06:51.948Z,2.38
2018-03-28T15:07:52.383Z,2.3
2018-03-28T15:08:52.443Z,2.4
2018-03-28T15:09:52.724Z,2.34
2018-03-28T15:10:52.736Z,2.34
2018-03-28T15:11:52.775Z,2.27
2018-03-28T15:12:52.539Z,2.42
2018-03-28T15:13:52.813Z,2.29
2018-03-28T15:14:52.843Z,2.3
2018-03-28T15:15:52.990Z,2.23
2018-03-28T15:16:53.298Z,2.36
2018-03-28T15:17:53.261Z,2.38
2018-03-28T15:18:53.518Z,2.36
2018-03-28T15:19:54.044Z,2.27
2018-03-28T15:20:53.280Z,2.2
2018-03-28T15:21:54.173Z,2.26
2018-03-28T15:22:53.930Z,2.26
2018-03-28T15:23:54.443Z,2.22
2018-03-28T15:24:54.470Z,2.23
2018-03-28T15:25:54.719Z,2.31
2018-03-28T15:26:54.518Z,2.26
2018-03-28T15:27:54.518Z,2.34
2018-03-28T15:28:54.861Z,2.29
2018-03-28T15:29:54.869Z,2.26
2018-03-28T15:30:54.586Z,2.27
2018-03-28T15:31:54.877Z,2.41
2018-03-28T15:32:54.868Z,2.23
2018-03-28T15:33:55.169Z,2.31
2018-03-28T15:34:55.178Z,2.33
2018-03-28T15:35:55.214Z,2.36
2018-03-28T15:36:55.197Z,2.36
2018-03-28T15:37:55.302Z,2.33
2018-03-28T15:38:55.272Z,2.27
2018-03-28T15:39:55.296Z,2.31
2018-03-28T15:40:55.364Z,2.38
2018-03-28T15:41:55.057Z,2.27
2018-03-28T15:42:55.357Z,2.31
2018-03-28T15:43:55.111Z,2.26
2018-03-28T15:44:55.333Z,2.33
2018-03-28T15:45:55.849Z,2.4
2018-03-28T15:46:55.832Z,2.3
2018-03-28T15:47:55.889Z,2.36
2018-03-28T15:48:56.153Z,2.33
2018-03-28T15:49:55.927Z,2.38
2018-03-28T15:50:55.935Z,2.36
2018-03-28T15:51:55.464Z,2.34
2018-03-28T15:52:55.992Z,2.3
2018-03-28T15:53:56.227Z,2.34
2018-03-28T15:54:55.752Z,2.24
2018-03-28T15:55:56.127Z,2.4
2018-03-28T15:56:55.941Z,2.33
2018-03-28T15:57:55.886Z,2.4
2018-03-28T15:58:56.228Z,2.34
2018-03-28T15:59:55.935Z,2.36
2018-03-28T16:00:55.968Z,2.33
2018-03-28T16:01:56.406Z,2.38
2018-03-28T16:02:56.822Z,2.4
2018-03-28T16:03:56.704Z,2.34
2018-03-28T16:04:56.716Z,2.4
2018-03-28T16:05:56.448Z,2.38
2018-03-28T16:06:56.493Z,2.42
2018-03-28T16:07:56.901Z,2.23
2018-03-28T16:08:57.317Z,2.34
2018-03-28T16:09:57.693Z,2.36
2018-03-28T16:10:58.597Z,2.26
2018-03-28T16:11:56.973Z,2.34
2018-03-28T16:12:57.266Z,2.33
2018-03-28T16:13:57.061Z,2.33
2018-03-28T16:14:57.758Z,2.33
2018-03-28T16:15:58.335Z,2.31
2018-03-28T16:16:57.406Z,2.31
2018-03-28T16:17:57.565Z,2.34
2018-03-28T16:19:00.314Z,2.41
2018-03-28T16:19:57.098Z,2.33
2018-03-28T16:20:57.778Z,2.4
2018-03-28T16:21:57.885Z,2.29
2018-03-28T16:22:57.473Z,2.34
2018-03-28T16:23:57.779Z,2.36
2018-03-28T16:24:58.590Z,2.34
2018-03-28T16:25:58.192Z,2.36
2018-03-28T16:26:58.519Z,2.36
2018-03-28T16:27:57.819Z,2.3
2018-03-28T16:28:58.409Z,2.4
2018-03-28T16:29:57.997Z,2.34
2018-03-28T16:30:58.210Z,2.31
2018-03-28T16:31:57.365Z,2.42
2018-03-28T16:32:57.842Z,2.34
2018-03-28T16:33:58.893Z,2.3
2018-03-28T16:34:59.568Z,2.34
2018-03-28T16:35:58.356Z,2.4
2018-03-28T16:36:59.465Z,2.33
2018-03-28T16:37:58.528Z,2.33
2018-03-28T16:38:59.125Z,2.38
2018-03-28T16:39:58.988Z,2.34
2018-03-28T16:40:59.557Z,2.16
2018-03-28T16:41:58.624Z,2.26
2018-03-28T16:42:58.985Z,2.22
2018-03-28T16:43:59.016Z,2.26
2018-03-28T16:44:58.356Z,2.41
2018-03-28T16:45:58.721Z,2.3
2018-03-28T16:46:59.938Z,2.24
2018-03-28T16:47:59.914Z,2.24
2018-03-28T16:48:59.687Z,2.24
2018-03-28T16:50:01.621Z,2.3
2018-03-28T16:51:01.212Z,2.26
2018-03-28T16:52:00.812Z,2.24
2018-03-28T16:53:00.462Z,2.26
2018-03-28T16:54:00.012Z,2.24
2018-03-28T16:55:00.119Z,2.29
2018-03-28T16:55:59.720Z,2.26
2018-03-28T16:56:59.746Z,2.31
2018-03-28T16:58:00.847Z,2.29
2018-03-28T16:59:00.358Z,2.27
2018-03-28T17:00:00.512Z,2.27
2018-03-28T17:01:00.429Z,2.27
2018-03-28T17:02:00.536Z,2.29
2018-03-28T17:03:00.822Z,2.26
2018-03-28T17:04:00.563Z,2.26
2018-03-28T17:05:01.024Z,2.29
2018-03-28T17:06:01.264Z,2.18
2018-03-28T17:07:01.014Z,2.26
2018-03-28T17:08:01.429Z,2.24
2018-03-28T17:09:01.061Z,2.16
2018-03-28T17:10:01.706Z,2.23
2018-03-28T17:11:01.459Z,2.31
2018-03-28T17:12:01.686Z,2.24
2018-03-28T17:13:01.808Z,2.3
2018-03-28T17:14:02.213Z,2.26
2018-03-28T17:15:02.127Z,2.23
2018-03-28T17:16:02.079Z,2.23
2018-03-28T17:17:01.902Z,2.16
2018-03-28T17:18:02.310Z,2.23
2018-03-28T17:19:02.755Z,2.18
2018-03-28T17:20:03.127Z,2.23
2018-03-28T17:21:03.155Z,2.18
2018-03-28T17:22:03.039Z,2.18
2018-03-28T17:23:03.327Z,2.23
2018-03-28T17:24:03.613Z,2.23
2018-03-28T17:25:03.688Z,2.23
2018-03-28T17:26:03.629Z,2.22
2018-03-28T17:27:03.437Z,2.18
2018-03-28T17:28:04.078Z,2.27
2018-03-28T17:29:04.106Z,2.22
2018-03-28T17:30:04.356Z,2.15
2018-03-28T17:31:04.268Z,2.23
2018-03-28T17:32:04.554Z,2.22
2018-03-28T17:33:04.757Z,2.23
2018-03-28T17:34:04.961Z,2.18
2018-03-28T17:35:05.366Z,2.26
2018-03-28T17:36:05.574Z,2.13
2018-03-28T17:37:05.704Z,2.22
2018-03-28T17:38:06.084Z,2.2
2018-03-28T17:39:06.496Z,2.06
2018-03-28T17:40:06.443Z,2.06
2018-03-28T17:41:06.626Z,2.2
2018-03-28T17:42:06.750Z,2.11
2018-03-28T17:43:07.169Z,2.23
2018-03-28T17:44:07.824Z,2.06
2018-03-28T17:45:07.717Z,2.13
2018-03-28T17:46:08.240Z,2.12
2018-03-28T17:47:08.260Z,2.13
2018-03-28T17:48:08.113Z,2.12
2018-03-28T17:49:07.948Z,2.16
2018-03-28T17:50:08.225Z,2.06
2018-03-28T17:51:08.534Z,2.11
2018-03-28T17:52:08.480Z,2.09
2018-03-28T17:53:08.860Z,2.06
2018-03-28T17:54:09.257Z,2.08
2018-03-28T17:55:09.973Z,2.12
2018-03-28T17:56:10.084Z,2.15
2018-03-28T17:57:10.593Z,2.11
2018-03-28T17:58:10.521Z,2.16
2018-03-28T17:59:11.024Z,2.15
2018-03-28T18:00:17.289Z,2.09
2018-03-28T18:01:17.228Z,2.09
2018-03-28T18:02:17.534Z,2.11
2018-03-28T18:03:17.553Z,2.06
2018-03-28T18:04:17.570Z,2.12
2018-03-28T18:05:17.738Z,2.13
2018-03-28T18:06:17.389Z,2.16
2018-03-28T18:07:17.134Z,2.05
2018-03-28T18:08:18.500Z,2.18
2018-03-28T18:09:18.095Z,2.26
2018-03-28T18:10:17.867Z,2.12
2018-03-28T18:11:18.646Z,2.15
2018-03-28T18:12:18.608Z,2.09
2018-03-28T18:13:18.771Z,2.18
2018-03-28T18:14:18.926Z,2.22
2018-03-28T18:15:19.382Z,2.22
2018-03-28T18:16:19.679Z,2.2
2018-03-28T18:17:19.604Z,2.22
2018-03-28T18:18:19.779Z,2.18
2018-03-28T18:19:20.241Z,2.2
2018-03-28T18:20:20.399Z,2.18
2018-03-28T18:21:20.845Z,2.18
2018-03-28T18:22:20.876Z,2.2
2018-03-28T18:23:21.059Z,2.23
2018-03-28T18:24:21.782Z,2.26
2018-03-28T18:25:21.544Z,2.2
2018-03-28T18:26:21.988Z,2.3
2018-03-28T18:27:22.228Z,2.2
2018-03-28T18:28:22.186Z,2.22
2018-03-28T18:29:22.488Z,2.22
2018-03-28T18:30:22.904Z,2.2
2018-03-28T18:31:23.364Z,2.18
2018-03-28T18:32:23.387Z,2.22
2018-03-28T18:33:23.175Z,2.16
2018-03-28T18:34:23.431Z,2.26
2018-03-28T18:35:23.458Z,2.2
2018-03-28T18:36:23.676Z,2.24
2018-03-28T18:37:24.133Z,2.23
2018-03-28T18:38:24.593Z,2.16
2018-03-28T18:39:24.803Z,2.22
2018-03-28T18:40:25.283Z,2.2
2018-03-28T18:41:25.434Z,2.16
2018-03-28T18:42:25.453Z,2.22
2018-03-28T18:43:25.771Z,2.2
2018-03-28T18:44:25.782Z,2.18
2018-03-28T18:45:26.203Z,2.22
2018-03-28T18:46:25.976Z,2.24
2018-03-28T18:47:26.141Z,2.24
2018-03-28T18:48:26.430Z,2.23
2018-03-28T18:49:26.210Z,2.23
2018-03-28T18:50:26.211Z,2.16
2018-03-28T18:51:26.128Z,2.2
2018-03-28T18:52:26.725Z,2.23
2018-03-28T18:53:26.745Z,2.24
2018-03-28T18:54:27.195Z,2.16
2018-03-28T18:55:27.333Z,2.27
2018-03-28T18:56:27.237Z,2.3
2018-03-28T18:57:26.981Z,2.26
2018-03-28T18:58:27.214Z,2.26
2018-03-28T18:59:27.230Z,2.26
2018-03-28T19:00:27.286Z,2.29
2018-03-28T19:01:27.299Z,2.24
2018-03-28T19:02:27.533Z,2.24
2018-03-28T19:03:27.559Z,2.29
2018-03-28T19:04:27.509Z,2.26
2018-03-28T19:05:28.083Z,2.26
2018-03-28T19:06:28.099Z,2.31
2018-03-28T19:07:28.113Z,2.26
2018-03-28T19:08:27.884Z,2.24
2018-03-28T19:09:28.177Z,2.2
2018-03-28T19:10:28.186Z,2.22